createdAt,value
2019-04-20T00:00:52.953Z,23.33
2019-04-20T00:03:19.439Z,17.97
2019-04-20T00:05:48.929Z,20.90
2019-04-20T00:08:23.403Z,19.90
2019-04-20T00:10:58.293Z,15.00
2019-04-20T00:13:28.584Z,15.40
2019-04-20T00:15:49.593Z,20.83
2019-04-20T00:18:19.183Z,17.40
2019-04-20T00:20:57.578Z,17.03
2019-04-20T00:23:40.535Z,19.00
2019-04-20T00:26:32.239Z,21.67
2019-04-20T00:29:08.950Z,20.73
2019-04-20T00:31:39.159Z,21.37
2019-04-20T00:33:59.469Z,17.40
2019-04-20T00:36:20.182Z,17.20
2019-04-20T00:38:53.611Z,14.10
2019-04-20T00:41:21.233Z,17.97
2019-04-20T00:43:51.130Z,13.53
2019-04-20T00:46:26.257Z,17.07
2019-04-20T00:49:00.838Z,17.57
2019-04-20T00:51:35.254Z,16.73
2019-04-20T00:53:53.839Z,19.70
2019-04-20T00:56:22.386Z,18.17
2019-04-20T00:59:05.735Z,14.00
2019-04-20T01:01:42.273Z,15.67
2019-04-20T01:04:14.841Z,15.67
2019-04-20T01:06:42.593Z,19.87
2019-04-20T01:08:57.100Z,13.90
2019-04-20T01:11:30.918Z,15.90
2019-04-20T01:14:02.973Z,17.70
2019-04-20T01:16:37.514Z,14.30
2019-04-20T01:18:57.575Z,15.03
2019-04-20T01:21:28.786Z,15.63
2019-04-20T01:24:01.508Z,14.07
2019-04-20T01:26:27.736Z,16.33
2019-04-20T01:29:09.972Z,16.70
2019-04-20T01:31:34.548Z,16.47
2019-04-20T01:34:06.256Z,13.97
2019-04-20T01:36:46.183Z,15.30
2019-04-20T01:39:12.488Z,13.03
2019-04-20T01:41:28.675Z,13.57
2019-04-20T01:43:58.554Z,18.17
2019-04-20T01:46:29.957Z,13.40
2019-04-20T01:49:00.725Z,13.10
2019-04-20T01:51:32.394Z,15.03
2019-04-20T01:54:15.931Z,13.00
2019-04-20T01:56:45.945Z,13.13
2019-04-20T01:59:21.455Z,15.10
2019-04-20T02:01:39.325Z,16.10
2019-04-20T02:04:17.191Z,15.40
2019-04-20T02:06:46.433Z,18.67
2019-04-20T02:09:15.684Z,13.97
2019-04-20T02:11:45.170Z,16.03
2019-04-20T02:14:13.784Z,12.33
2019-04-20T02:16:48.086Z,15.37
2019-04-20T02:19:26.704Z,12.30
2019-04-20T02:22:01.257Z,16.27
2019-04-20T02:24:14.861Z,15.43
2019-04-20T02:26:45.087Z,13.70
2019-04-20T02:29:37.357Z,9.00
2019-04-20T02:34:57.723Z,13.83
2019-04-20T02:37:24.579Z,12.07
2019-04-20T02:39:51.435Z,19.87
2019-04-20T02:42:24.895Z,15.67
2019-04-20T02:44:58.754Z,11.77
2019-04-20T02:47:30.719Z,22.90
2019-04-20T02:50:07.445Z,12.93
2019-04-20T02:52:32.700Z,18.57
2019-04-20T03:02:10.238Z,15.27
2019-04-20T03:04:35.053Z,10.17
2019-04-20T03:07:09.453Z,14.23
2019-04-20T03:09:46.913Z,14.87
2019-04-20T03:12:23.747Z,11.17
2019-04-20T03:14:42.283Z,12.50
2019-04-20T03:17:21.140Z,15.13
2019-04-20T03:19:46.494Z,14.77
2019-04-20T03:22:23.385Z,13.33
2019-04-20T03:24:55.410Z,10.53
2019-04-20T03:27:18.350Z,12.60
2019-04-20T03:29:56.717Z,14.83
2019-04-20T03:33:08.481Z,12.63
2019-04-20T03:35:17.428Z,12.37
2019-04-20T03:37:38.021Z,12.90
2019-04-20T03:39:56.757Z,12.93
2019-04-20T03:42:12.886Z,17.13
2019-04-20T03:44:48.945Z,12.30
2019-04-20T03:47:26.690Z,12.20
2019-04-20T03:50:07.371Z,18.00
2019-04-20T03:52:56.274Z,12.70
2019-04-20T03:55:20.001Z,12.57
2019-04-20T03:57:58.733Z,11.57
2019-04-20T04:00:36.237Z,14.40
2019-04-20T04:03:22.818Z,11.23
2019-04-20T04:05:42.293Z,11.53
2019-04-20T04:08:06.249Z,13.67
2019-04-20T04:10:40.922Z,10.67
2019-04-20T04:13:11.790Z,11.10
2019-04-20T04:15:48.758Z,17.27
2019-04-20T04:18:22.991Z,9.80
2019-04-20T04:20:52.187Z,14.23
2019-04-20T04:23:35.609Z,12.47
2019-04-20T04:26:07.045Z,11.03
2019-04-20T04:28:36.784Z,12.57
2019-04-20T04:31:09.434Z,12.10
2019-04-20T04:33:54.120Z,12.50
2019-04-20T04:36:10.524Z,15.63
2019-04-20T04:39:01.211Z,13.40
2019-04-20T04:41:19.958Z,16.17
2019-04-20T04:43:40.118Z,15.85
2019-04-20T04:45:55.395Z,11.15
2019-04-20T04:48:29.999Z,14.20
2019-04-20T04:51:01.256Z,14.00
2019-04-20T04:53:39.608Z,11.22
2019-04-20T04:56:03.975Z,12.30
2019-04-20T04:58:40.532Z,10.32
2019-04-20T05:01:14.784Z,16.00
2019-04-20T05:04:02.816Z,11.30
2019-04-20T05:06:29.198Z,13.13
2019-04-20T05:08:47.451Z,13.62
2019-04-20T05:11:13.282Z,8.45
2019-04-20T05:13:52.288Z,11.60
2019-04-20T05:16:33.779Z,13.03
2019-04-20T05:19:05.134Z,10.72
2019-04-20T05:21:38.879Z,11.05
2019-04-20T05:24:07.609Z,15.40
2019-04-20T05:26:51.197Z,10.23
2019-04-20T05:29:08.505Z,9.15
2019-04-20T05:31:35.712Z,13.45
2019-04-20T05:36:49.340Z,19.07
2019-04-20T05:39:26.933Z,15.93
2019-04-20T05:41:55.154Z,10.28
2019-04-20T05:44:20.963Z,11.63
2019-04-20T05:47:01.055Z,14.98
2019-04-20T05:49:31.196Z,10.95
2019-04-20T05:52:07.802Z,12.25
2019-04-20T05:54:32.540Z,10.50
2019-04-20T05:57:05.161Z,11.03
2019-04-20T05:59:36.708Z,13.13
2019-04-20T06:02:03.624Z,9.08
2019-04-20T06:04:50.574Z,15.10
2019-04-20T06:07:09.185Z,10.20
2019-04-20T06:09:37.449Z,14.70
2019-04-20T06:12:13.073Z,8.60
2019-04-20T06:14:49.755Z,11.20
2019-04-20T06:17:26.509Z,18.10
2019-04-20T06:20:02.309Z,10.13
2019-04-20T06:22:36.516Z,10.48
2019-04-20T06:25:22.763Z,11.15
2019-04-20T06:27:43.534Z,10.32
2019-04-20T06:30:05.986Z,11.12
2019-04-20T06:33:28.541Z,11.12
2019-04-20T06:36:05.459Z,10.40
2019-04-20T06:38:38.065Z,14.13
2019-04-20T06:40:56.604Z,10.30
2019-04-20T06:43:11.346Z,11.97
2019-04-20T06:45:53.435Z,8.90
2019-04-20T06:48:30.798Z,12.10
2019-04-20T06:50:48.349Z,11.83
2019-04-20T06:53:37.004Z,11.05
2019-04-20T06:56:13.931Z,11.60
2019-04-20T06:58:49.580Z,11.95
2019-04-20T07:01:08.931Z,11.75
2019-04-20T07:06:23.041Z,11.15
2019-04-20T07:08:50.650Z,10.43
2019-04-20T07:11:10.793Z,11.90
2019-04-20T07:13:28.565Z,14.05
2019-04-20T07:16:16.268Z,12.50
2019-04-20T07:19:01.169Z,8.85
2019-04-20T07:22:01.876Z,15.93
2019-04-20T07:24:25.160Z,10.55
2019-04-20T07:26:59.177Z,15.50
2019-04-20T07:29:26.028Z,16.12
2019-04-20T07:31:53.644Z,9.85
2019-04-20T07:34:27.812Z,12.88
2019-04-20T07:37:23.616Z,14.40
2019-04-20T07:39:32.878Z,11.43
2019-04-20T07:42:06.421Z,14.05
2019-04-20T07:44:36.269Z,15.18
2019-04-20T07:47:07.651Z,14.40
2019-04-20T07:49:30.147Z,10.88
2019-04-20T07:51:45.420Z,14.78
2019-04-20T07:54:37.453Z,16.02
2019-04-20T07:57:03.832Z,10.58
2019-04-20T07:59:32.819Z,11.85
2019-04-20T08:02:16.260Z,14.13
2019-04-20T08:04:52.448Z,19.92
2019-04-20T08:07:09.184Z,13.70
2019-04-20T08:09:44.182Z,13.20
2019-04-20T08:12:43.219Z,14.23
2019-04-20T08:15:11.852Z,10.80
2019-04-20T08:17:48.488Z,12.88
2019-04-20T08:20:07.606Z,12.18
2019-04-20T08:22:42.116Z,15.25
2019-04-20T08:25:02.124Z,16.42
2019-04-20T08:27:19.772Z,13.60
2019-04-20T08:30:13.409Z,18.25
2019-04-20T08:32:50.586Z,12.55
2019-04-20T08:35:32.022Z,19.73
2019-04-20T08:38:22.138Z,11.88
2019-04-20T08:40:32.026Z,11.50
2019-04-20T08:43:10.704Z,11.93
2019-04-20T08:45:34.626Z,12.40
2019-04-20T08:48:14.047Z,11.48
2019-04-20T08:50:38.275Z,10.85
2019-04-20T08:53:23.154Z,13.90
2019-04-20T08:55:40.063Z,15.63
2019-04-20T08:57:51.462Z,14.90
2019-04-20T09:00:30.905Z,13.78
2019-04-20T09:02:55.561Z,11.83
2019-04-20T09:05:34.780Z,10.60
2019-04-20T09:08:06.828Z,16.93
2019-04-20T09:10:45.494Z,12.73
2019-04-20T09:13:08.414Z,11.15
2019-04-20T09:15:27.707Z,11.55
2019-04-20T09:18:09.293Z,9.08
2019-04-20T09:20:44.582Z,12.80
2019-04-20T09:23:21.386Z,8.05
2019-04-20T09:28:33.187Z,10.28
2019-04-20T09:31:18.083Z,11.48
2019-04-20T09:37:12.919Z,12.73
2019-04-20T09:39:32.630Z,9.40
2019-04-20T09:42:07.113Z,13.38
2019-04-20T09:44:41.896Z,9.98
2019-04-20T09:47:08.278Z,10.45
2019-04-20T09:49:49.270Z,10.18
2019-04-20T09:52:21.145Z,9.73
2019-04-20T09:54:58.030Z,11.45
2019-04-20T09:57:28.328Z,9.50
2019-04-20T09:59:57.641Z,8.85
2019-04-20T10:02:17.854Z,11.55
2019-04-20T10:04:39.868Z,8.33
2019-04-20T10:07:14.234Z,9.63
2019-04-20T10:09:43.613Z,7.65
2019-04-20T10:12:11.171Z,16.97
2019-04-20T10:14:40.719Z,8.53
2019-04-20T10:17:09.822Z,8.10
2019-04-20T10:19:40.987Z,13.90
2019-04-20T10:22:10.760Z,8.35
2019-04-20T10:24:39.690Z,9.15
2019-04-20T10:27:08.704Z,9.45
2019-04-20T10:29:41.625Z,8.13
2019-04-20T10:32:14.537Z,13.30
2019-04-20T10:34:41.527Z,9.65
2019-04-20T10:37:11.920Z,11.48
2019-04-20T10:39:40.760Z,12.15
2019-04-20T10:42:10.089Z,7.47
2019-04-20T10:44:38.993Z,9.55
2019-04-20T10:47:09.075Z,11.15
2019-04-20T10:49:38.467Z,12.23
2019-04-20T10:52:07.680Z,10.98
2019-04-20T10:54:36.570Z,11.80
2019-04-20T10:57:05.801Z,9.40
2019-04-20T10:59:34.883Z,7.12
2019-04-20T11:02:03.683Z,8.48
2019-04-20T11:04:32.735Z,11.08
2019-04-20T11:07:02.825Z,10.25
2019-04-20T11:09:32.454Z,12.80
2019-04-20T11:12:02.204Z,4.70
2019-04-20T11:14:34.536Z,9.80
2019-04-20T11:17:02.589Z,10.48
2019-04-20T11:19:31.677Z,7.97
2019-04-20T11:22:00.346Z,9.90
2019-04-20T11:24:30.173Z,6.30
2019-04-20T11:27:00.426Z,7.03
2019-04-20T11:29:29.317Z,7.95
2019-04-20T11:31:59.413Z,8.65
2019-04-20T11:34:33.404Z,9.23
2019-04-20T11:36:59.267Z,10.48
2019-04-20T11:39:29.258Z,6.47
2019-04-20T11:41:59.512Z,6.85
2019-04-20T11:44:31.239Z,4.92
2019-04-20T11:47:02.873Z,7.40
2019-04-20T11:49:33.279Z,7.62
2019-04-20T11:52:03.510Z,4.67
2019-04-20T11:54:32.675Z,9.88
2019-04-20T11:57:01.637Z,5.50
2019-04-20T11:59:30.578Z,4.67
2019-04-20T12:02:08.238Z,6.87
2019-04-20T12:04:48.891Z,5.20
2019-04-20T12:07:11.019Z,4.80
2019-04-20T12:09:39.979Z,5.28
2019-04-20T12:12:20.278Z,5.03
2019-04-20T12:14:40.842Z,9.95
2019-04-20T12:17:11.352Z,4.28
2019-04-20T12:19:41.761Z,6.58
2019-04-20T12:22:11.847Z,5.58
2019-04-20T12:24:42.258Z,6.60
2019-04-20T12:27:12.454Z,8.03
2019-04-20T12:29:41.531Z,3.08
2019-04-20T12:32:10.788Z,4.12
2019-04-20T12:34:41.291Z,5.40
2019-04-20T12:37:11.219Z,7.75
2019-04-20T12:39:40.337Z,5.22
2019-04-20T12:42:09.617Z,7.08
2019-04-20T12:44:39.683Z,5.62
2019-04-20T12:47:09.890Z,6.80
2019-04-20T12:49:38.710Z,6.03
2019-04-20T12:52:08.414Z,4.87
2019-04-20T12:54:41.257Z,6.42
2019-04-20T12:57:08.898Z,4.83
2019-04-20T12:59:39.182Z,6.83
2019-04-20T13:02:09.211Z,5.75
2019-04-20T13:04:39.469Z,3.75
2019-04-20T13:07:08.497Z,4.35
2019-04-20T13:09:41.775Z,7.85
2019-04-20T13:12:23.942Z,5.15
2019-04-20T13:15:28.780Z,3.35
2019-04-20T13:17:58.929Z,5.05
2019-04-20T13:20:28.074Z,7.45
2019-04-20T13:22:57.269Z,6.17
2019-04-20T13:25:26.307Z,2.45
2019-04-20T13:27:55.293Z,6.15
2019-04-20T13:30:24.287Z,4.95
2019-04-20T13:32:53.974Z,7.12
2019-04-20T13:35:23.176Z,3.98
2019-04-20T13:37:52.062Z,4.78
2019-04-20T13:40:21.825Z,3.62
2019-04-20T13:43:09.900Z,3.77
2019-04-20T13:45:55.132Z,7.78
2019-04-20T13:48:19.367Z,5.10
2019-04-20T13:50:49.961Z,4.55
2019-04-20T13:53:19.231Z,3.50
2019-04-20T13:58:38.169Z,6.92
2019-04-20T14:01:08.836Z,5.70
2019-04-20T14:03:38.738Z,10.13
2019-04-20T14:06:08.902Z,5.30
2019-04-20T14:08:41.510Z,7.30
2019-04-20T14:11:13.445Z,4.95
2019-04-20T14:13:50.096Z,4.00
2019-04-20T14:16:14.256Z,4.28
2019-04-20T14:18:58.694Z,5.58
2019-04-20T14:21:28.208Z,4.17
2019-04-20T14:23:57.190Z,3.20
2019-04-20T14:26:30.768Z,3.55
2019-04-20T14:29:00.826Z,7.15
2019-04-20T14:31:32.162Z,2.77
2019-04-20T14:34:01.046Z,5.15
2019-04-20T14:36:32.840Z,5.22
2019-04-20T14:39:02.405Z,3.72
2019-04-20T14:41:31.194Z,4.15
2019-04-20T14:43:59.971Z,4.60
2019-04-20T14:46:29.533Z,2.75
2019-04-20T14:48:58.851Z,3.10
2019-04-20T14:51:27.882Z,3.15
2019-04-20T14:53:57.003Z,6.37
2019-04-20T14:56:25.658Z,3.30
2019-04-20T14:58:59.737Z,6.20
2019-04-20T15:01:42.799Z,4.95
2019-04-20T15:04:16.831Z,5.00
2019-04-20T15:06:42.612Z,6.60
2019-04-20T15:09:12.742Z,5.95
2019-04-20T15:11:44.293Z,4.25
2019-04-20T15:14:12.251Z,4.33
2019-04-20T15:16:42.553Z,4.08
2019-04-20T15:19:13.746Z,4.00
2019-04-20T15:21:45.363Z,2.42
2019-04-20T15:24:15.379Z,8.43
2019-04-20T15:26:48.655Z,3.77
2019-04-20T15:29:18.188Z,3.50
2019-04-20T15:31:48.168Z,8.75
2019-04-20T15:34:17.330Z,3.60
2019-04-20T15:36:46.206Z,4.15
2019-04-20T15:39:16.935Z,4.62
2019-04-20T15:41:47.254Z,2.83
2019-04-20T15:44:17.510Z,6.17
2019-04-20T15:46:46.467Z,2.95
2019-04-20T15:49:15.859Z,4.12
2019-04-20T15:51:46.038Z,3.60
2019-04-20T15:54:17.878Z,2.52
2019-04-20T15:56:52.776Z,3.37
2019-04-20T15:59:17.039Z,2.80
2019-04-20T16:01:47.425Z,8.10
2019-04-20T16:04:37.627Z,6.28
2019-04-20T16:07:05.437Z,2.40
2019-04-20T16:09:35.807Z,5.95
2019-04-20T16:12:05.001Z,4.05
2019-04-20T16:14:35.398Z,3.47
2019-04-20T16:17:08.361Z,4.37
2019-04-20T16:19:46.164Z,13.43
2019-04-20T16:22:05.975Z,3.85
2019-04-20T16:24:37.604Z,3.85
2019-04-20T16:27:25.423Z,6.47
2019-04-20T16:29:55.489Z,3.77
2019-04-20T16:32:24.800Z,4.03
2019-04-20T16:34:53.994Z,4.62
2019-04-20T16:37:24.455Z,3.77
2019-04-20T16:39:54.647Z,3.00
2019-04-20T16:42:24.412Z,3.40
2019-04-20T16:44:53.612Z,3.62
2019-04-20T16:47:23.968Z,3.02
2019-04-20T16:49:52.952Z,5.72
2019-04-20T16:52:22.814Z,4.30
2019-04-20T16:54:51.964Z,7.03
2019-04-20T16:57:21.459Z,2.85
2019-04-20T16:59:54.022Z,2.92
2019-04-20T17:02:21.572Z,5.78
2019-04-20T17:04:53.608Z,6.15
2019-04-20T17:07:24.935Z,9.10
2019-04-20T17:09:54.071Z,4.85
2019-04-20T17:12:23.893Z,3.50
2019-04-20T17:14:53.691Z,2.90
2019-04-20T17:17:27.349Z,3.15
2019-04-20T17:19:57.566Z,4.78
2019-04-20T17:22:27.565Z,3.17
2019-04-20T17:24:56.694Z,3.55
2019-04-20T17:27:28.780Z,3.65
2019-04-20T17:30:18.311Z,3.40
2019-04-20T17:32:47.279Z,5.25
2019-04-20T17:35:28.690Z,4.67
2019-04-20T17:37:51.629Z,3.62
2019-04-20T17:40:39.825Z,7.35
2019-04-20T17:43:02.401Z,3.67
2019-04-20T17:45:35.082Z,7.17
2019-04-20T17:48:08.863Z,4.28
2019-04-20T17:50:49.279Z,4.97
2019-04-20T17:53:11.312Z,4.62
2019-04-20T17:55:45.385Z,4.28
2019-04-20T17:58:19.051Z,3.58
2019-04-20T18:00:51.488Z,6.40
2019-04-20T18:03:55.363Z,6.70
2019-04-20T18:06:12.733Z,6.35
2019-04-20T18:08:45.533Z,7.83
2019-04-20T18:11:01.867Z,7.95
2019-04-20T18:13:27.589Z,7.62
2019-04-20T18:16:22.244Z,7.22
2019-04-20T18:18:58.340Z,11.12
2019-04-20T18:21:21.431Z,8.15
2019-04-20T18:23:51.854Z,8.58
2019-04-20T18:26:38.335Z,6.92
2019-04-20T18:29:10.669Z,7.35
2019-04-20T18:31:26.260Z,6.85
2019-04-20T18:34:00.747Z,6.45
2019-04-20T18:36:32.151Z,16.10
2019-04-20T18:39:02.641Z,5.90
2019-04-20T18:41:35.384Z,7.90
2019-04-20T18:43:59.094Z,10.37
2019-04-20T18:46:58.716Z,6.55
2019-04-20T18:49:16.495Z,5.43
2019-04-20T18:51:30.015Z,7.95
2019-04-20T18:54:05.625Z,10.37
2019-04-20T18:56:36.125Z,9.13
2019-04-20T18:59:00.939Z,11.05
2019-04-20T19:01:34.198Z,12.27
2019-04-20T19:04:01.580Z,8.48
2019-04-20T19:06:31.768Z,6.75
2019-04-20T19:09:00.889Z,10.10
2019-04-20T19:11:30.811Z,9.17
2019-04-20T19:14:24.950Z,10.03
2019-04-20T19:17:02.038Z,11.35
2019-04-20T19:19:36.742Z,6.93
2019-04-20T19:21:56.733Z,7.40
2019-04-20T19:24:29.299Z,10.63
2019-04-20T19:27:01.529Z,8.67
2019-04-20T19:29:33.034Z,10.93
2019-04-20T19:32:13.344Z,10.67
2019-04-20T19:34:43.237Z,8.30
2019-04-20T19:37:11.847Z,8.50
2019-04-20T19:39:43.621Z,9.70
2019-04-20T19:42:11.549Z,9.10
2019-04-20T19:44:45.142Z,10.43
2019-04-20T19:47:22.718Z,8.63
2019-04-20T19:49:42.190Z,10.10
2019-04-20T19:52:31.030Z,10.13
2019-04-20T19:54:50.127Z,7.77
2019-04-20T19:57:16.274Z,11.43
2019-04-20T19:59:38.740Z,13.00
2019-04-20T20:02:03.520Z,9.90
2019-04-20T20:04:41.435Z,10.80
2019-04-20T20:07:06.885Z,9.63
2019-04-20T20:09:38.602Z,9.43
2019-04-20T20:12:09.328Z,11.53
2019-04-20T20:14:39.763Z,10.53
2019-04-20T20:17:30.090Z,8.33
2019-04-20T20:20:03.791Z,10.97
2019-04-20T20:22:18.145Z,8.40
2019-04-20T20:24:36.898Z,9.20
2019-04-20T20:27:17.151Z,10.30
2019-04-20T20:29:46.654Z,13.78
2019-04-20T20:32:17.840Z,15.33
2019-04-20T20:34:42.222Z,10.53
2019-04-20T20:37:12.376Z,9.67
2019-04-20T20:39:40.415Z,12.70
2019-04-20T20:42:18.889Z,12.43
2019-04-20T20:44:49.848Z,10.20
2019-04-20T20:47:37.264Z,13.27
2019-04-20T20:50:08.293Z,10.87
2019-04-20T20:52:31.864Z,13.27
2019-04-20T20:54:56.423Z,12.53
2019-04-20T20:57:21.902Z,9.97
2019-04-20T20:59:55.224Z,15.20
2019-04-20T21:02:22.408Z,10.93
2019-04-20T21:04:47.902Z,11.87
2019-04-20T21:07:16.679Z,12.87
2019-04-20T21:09:46.098Z,9.73
2019-04-20T21:16:12.063Z,10.33
2019-04-20T21:31:29.716Z,17.00
2019-04-20T21:43:33.421Z,12.90
2019-04-20T21:46:40.905Z,10.00
2019-04-20T21:59:49.126Z,9.73
2019-04-20T22:08:18.193Z,10.60
2019-04-20T22:10:42.816Z,11.63
2019-04-20T22:16:36.367Z,9.83
2019-04-20T22:34:06.588Z,11.27
2019-04-20T22:35:22.581Z,9.77
2019-04-20T22:44:54.289Z,8.87
2019-04-20T22:51:17.817Z,10.10
2019-04-20T22:54:36.307Z,12.07
2019-04-20T22:58:09.824Z,10.83
2019-04-20T23:44:59.277Z,9.63
2019-04-20T23:57:51.523Z,11.93
